Time;durP1;ratioP1;P1;durP2;ratioP2;P2;SDS_P1;SDS_P2;PMS_P1;PMS_P2;Temp;Humidity;BMP_temperature;BMP_pressure;BME280_temperature;BME280_humidity;BME280_pressure;Samples;Min_cycle;Max_cycle;Signal;HPM_P1;HPM_P2
2022/09/26 00:22:42;;;;;;;13.60;3.33;;;;;;;;;;6241799;23;20480;-89
2022/09/26 01:29:15;;;;;;;31.07;3.67;;;;;;;;;;6240062;22;21122;-92
2022/09/26 01:32:47;;;;;;;27.23;3.83;;;;;;;;;;6193752;23;20410;-92
2022/09/26 01:34:51;;;;;;;37.63;4.23;;;;;;;;;;6224305;23;20782;-91
2022/09/26 04:13:44;;;;;;;;;;;;;;;;;;;;;
2022/09/26 06:32:48;;;;;;;38.13;4.73;;;;;;;17.16;nan;101011.88;6149307;23;20484;-92
2022/09/26 06:35:20;;;;;;;32.87;4.50;;;;;;;17.11;nan;101007.06;6153856;23;20524;-91
2022/09/26 06:37:47;;;;;;;34.23;4.80;;;;;;;17.04;nan;100989.72;6105177;23;20409;-88
2022/09/26 06:40:24;;;;;;;30.90;5.00;;;;;;;17.19;nan;101017.78;6130681;23;20742;-89
2022/09/26 06:42:54;;;;;;;38.10;5.57;;;;;;;17.15;nan;101015.72;6104440;23;20409;-89
2022/09/26 06:45:25;;;;;;;32.93;5.00;;;;;;;17.18;nan;101021.63;6106103;23;20444;-89
2022/09/26 06:48:01;;;;;;;31.83;6.03;;;;;;;17.21;nan;101023.09;6129252;23;20581;-90
2022/09/26 06:50:30;;;;;;;29.60;5.63;;;;;;;17.19;nan;101020.56;6105786;23;20461;-87
2022/09/26 06:53:02;;;;;;;27.03;5.20;;;;;;;17.20;nan;101022.25;6128217;23;20759;-89
2022/09/26 06:55:36;;;;;;;39.43;5.00;;;;;;;17.24;nan;101037.28;6109058;23;20412;-89
2022/09/26 06:58:03;;;;;;;24.30;5.60;;;;;;;17.25;nan;101030.69;6180408;23;20422;-90
2022/09/26 07:00:47;;;;;;;34.87;5.30;;;;;;;17.31;nan;101028.94;6196477;23;20406;-90
2022/09/26 07:03:15;;;;;;;31.60;5.70;;;;;;;17.35;nan;101040.34;6221538;23;20411;-90
2022/09/26 07:05:47;;;;;;;32.33;5.93;;;;;;;17.38;nan;101039.88;6171864;23;20438;-90
2022/09/26 07:19:50;;;;;;;41.67;5.40;;;;;;;17.46;nan;101031.28;6248433;23;20439;-90
2022/09/26 07:25:59;;;;;;;38.37;5.10;;;;;;;17.61;nan;101040.00;6247694;23;20437;-89
2022/09/26 07:28:45;;;;;;;29.50;4.90;;;;;;;17.67;nan;101054.88;6197379;23;20459;-91
2022/09/26 07:31:28;;;;;;;39.37;4.77;;;;;;;17.69;nan;101059.09;6202114;23;20410;-90
2022/09/26 07:33:59;;;;;;;29.87;4.27;;;;;;;17.77;nan;101072.56;6166345;23;20439;-91
2022/09/26 07:36:26;;;;;;;35.23;4.20;;;;;;;17.80;nan;101066.56;6167043;23;20391;-95
2022/09/26 07:39:12;;;;;;;28.07;4.17;;;;;;;17.78;nan;101060.44;6167641;23;20410;-96
2022/09/26 07:42:09;;;;;;;24.53;4.47;;;;;;;17.90;nan;101066.84;6171037;23;20513;-93
2022/09/26 07:44:37;;;;;;;24.13;4.30;;;;;;;17.92;nan;101069.38;6191613;23;20419;-90
2022/09/26 07:50:27;;;;;;;39.37;6.40;;;;;;;18.07;nan;101082.81;6195184;23;20411;-89
2022/09/26 07:52:56;;;;;;;48.43;5.67;;;;;;;18.01;nan;101078.22;6166633;23;20404;-89
2022/09/26 07:55:27;;;;;;;37.43;4.80;;;;;;;18.09;nan;101087.00;6166734;23;20388;-89
2022/09/26 07:57:55;;;;;;;29.70;5.67;;;;;;;18.14;nan;101089.06;6166676;23;20838;-89
2022/09/26 08:00:23;;;;;;;24.43;3.63;;;;;;;18.17;nan;101092.22;6191198;23;20474;-89
2022/09/26 08:02:51;;;;;;;36.00;3.77;;;;;;;18.18;nan;101095.81;6215699;23;20925;-89
2022/09/26 08:05:19;;;;;;;28.00;4.00;;;;;;;18.29;nan;101095.00;6166516;23;20431;-89
2022/09/26 08:07:48;;;;;;;22.83;3.70;;;;;;;18.33;nan;101099.00;6166313;23;20419;-89
2022/09/26 08:10:20;;;;;;;23.23;3.23;;;;;;;18.41;nan;101109.75;6166347;23;20402;-89
2022/09/26 08:12:49;;;;;;;18.90;2.90;;;;;;;18.45;nan;101110.13;6166506;23;20404;-89
2022/09/26 08:15:16;;;;;;;21.33;3.90;;;;;;;18.42;nan;101097.59;6191400;23;20408;-89
2022/09/26 08:17:44;;;;;;;20.00;3.70;;;;;;;18.51;nan;101107.22;6165510;23;20412;-89
2022/09/26 08:20:16;;;;;;;27.17;4.03;;;;;;;18.62;nan;101123.06;6191345;23;20410;-89
2022/09/26 08:22:45;;;;;;;30.57;3.00;;;;;;;18.68;nan;101123.16;6215829;23;20419;-89
2022/09/26 08:25:13;;;;;;;19.63;4.60;;;;;;;18.75;nan;101119.22;6190195;23;20451;-87
2022/09/26 08:39:09;;;;;;;27.17;3.03;;;;;;;18.88;nan;101132.00;6246788;22;20421;-89
2022/09/26 08:42:00;;;;;;;15.13;3.00;;;;;;;19.04;nan;101149.88;6195902;23;20406;-89
2022/09/26 08:46:28;;;;;;;14.03;3.00;;;;;;;19.07;nan;101144.66;6173594;23;20925;-89
2022/09/26 08:48:01;;;;;;;18.37;2.77;;;;;;;19.13;nan;101154.78;6247838;23;20410;-89
2022/09/26 08:50:39;;;;;;;16.73;2.93;;;;;;;19.16;nan;101146.00;6198366;23;20394;-89
2022/09/26 08:53:18;;;;;;;15.50;2.70;;;;;;;19.26;nan;101153.69;6196946;23;20424;-89
2022/09/26 08:55:47;;;;;;;15.03;2.90;;;;;;;19.36;nan;101153.09;6173687;23;20406;-88
2022/09/26 08:58:25;;;;;;;12.10;2.53;;;;;;;19.44;nan;101166.59;6171307;23;20409;-88
2022/09/26 09:01:00;;;;;;;34.50;3.37;;;;;;;19.49;nan;101169.47;6246233;23;20422;-89
2022/09/26 09:03:36;;;;;;;20.20;3.17;;;;;;;19.56;nan;101175.78;6172624;23;20409;-89
2022/09/26 09:06:12;;;;;;;16.47;2.93;;;;;;;19.63;nan;101162.63;6245595;23;20907;-89
2022/09/26 09:08:43;;;;;;;22.23;3.30;;;;;;;19.75;nan;101169.00;6171888;23;20403;-89
2022/09/26 09:11:47;;;;;;;18.33;3.20;;;;;;;19.85;nan;101183.09;6220690;23;20394;-88
2022/09/26 09:14:31;;;;;;;10.20;2.43;;;;;;;19.97;nan;101172.81;6221378;23;20398;-89
2022/09/26 09:17:07;;;;;;;10.90;2.27;;;;;;;20.05;nan;101182.66;6219795;23;20410;-89
2022/09/26 09:19:47;;;;;;;11.50;2.10;;;;;;;20.12;nan;101188.09;6221261;23;20406;-89
2022/09/26 09:22:57;;;;;;;15.67;2.90;;;;;;;20.27;nan;101188.41;6195885;23;20390;-89
2022/09/26 09:25:42;;;;;;;8.10;2.60;;;;;;;20.34;nan;101189.09;6208839;23;20956;-89
2022/09/26 09:28:26;;;;;;;14.57;2.47;;;;;;;20.49;nan;101197.75;6198774;23;20473;-89
2022/09/26 09:30:58;;;;;;;18.47;2.73;;;;;;;20.56;nan;101205.94;6219790;23;20714;-89
2022/09/26 09:33:41;;;;;;;9.20;2.23;;;;;;;20.67;nan;101205.88;6220513;23;20413;-88
2022/09/26 09:36:20;;;;;;;14.60;2.13;;;;;;;20.71;nan;101210.94;6220268;23;20383;-89
2022/09/26 09:38:49;;;;;;;12.90;2.50;;;;;;;20.77;nan;101215.50;6213607;23;20513;-89
2022/09/26 09:41:30;;;;;;;12.73;3.27;;;;;;;20.77;nan;101207.16;6195527;23;20483;-90
2022/09/26 09:44:01;;;;;;;12.90;2.70;;;;;;;20.86;nan;101200.09;6173761;23;20489;-89
2022/09/26 09:46:38;;;;;;;16.57;3.00;;;;;;;20.93;nan;101196.06;6196184;23;20571;-88
2022/09/26 09:49:09;;;;;;;16.43;2.67;;;;;;;21.08;nan;101200.19;6195863;23;20410;-89
2022/09/26 09:51:55;;;;;;;11.97;3.00;;;;;;;21.22;nan;101207.97;6219526;23;20426;-89
2022/09/26 09:55:09;;;;;;;16.37;2.70;;;;;;;21.32;nan;101196.19;6071302;23;20411;-89
2022/09/26 09:57:50;;;;;;;15.03;2.20;;;;;;;21.49;nan;101202.56;6090216;23;20793;-89
2022/09/26 10:00:23;;;;;;;15.90;2.20;;;;;;;21.61;nan;101206.09;6071531;23;20554;-89
2022/09/26 10:02:59;;;;;;;12.13;2.43;;;;;;;21.73;nan;101213.50;6047268;23;20411;-89
2022/09/26 10:05:49;;;;;;;8.23;2.60;;;;;;;21.84;nan;101210.59;6071067;23;20443;-89
2022/09/26 10:08:30;;;;;;;8.67;1.53;;;;;;;21.99;nan;101209.94;6049479;23;20414;-89
2022/09/26 10:11:21;;;;;;;16.53;2.30;;;;;;;22.16;nan;101223.84;6071494;23;20410;-89
2022/09/26 10:13:55;;;;;;;6.50;1.40;;;;;;;22.20;nan;101208.31;6199811;23;20846;-89
2022/09/26 10:16:23;;;;;;;11.00;2.20;;;;;;;22.29;nan;101212.31;6197818;23;20541;-90
2022/09/26 10:18:55;;;;;;;6.00;1.77;;;;;;;22.44;nan;101215.28;6172162;23;20403;-89
2022/09/26 10:21:39;;;;;;;9.40;1.60;;;;;;;22.60;nan;101214.34;6197907;23;20386;-89
2022/09/26 10:24:39;;;;;;;11.10;1.70;;;;;;;22.70;nan;101225.63;6171289;23;20905;-88
2022/09/26 10:28:00;;;;;;;14.50;2.10;;;;;;;22.82;nan;101225.47;6196829;23;20403;-89
2022/09/26 10:30:32;;;;;;;8.50;2.00;;;;;;;22.89;nan;101234.50;6130306;23;20468;-89
2022/09/26 10:33:02;;;;;;;8.47;1.70;;;;;;;23.01;nan;101226.78;6131824;23;20892;-89
2022/09/26 10:35:44;;;;;;;14.17;1.83;;;;;;;23.26;nan;101233.69;6131983;23;20412;-89
2022/09/26 10:38:26;;;;;;;13.83;2.10;;;;;;;23.25;nan;101227.28;6117672;23;20886;-89
2022/09/26 10:41:23;;;;;;;10.33;2.70;;;;;;;23.35;nan;101221.78;6010785;23;20560;-89
2022/09/26 10:43:54;;;;;;;10.13;1.97;;;;;;;23.37;nan;101224.28;6011190;23;20413;-89
2022/09/26 10:46:22;;;;;;;8.63;2.10;;;;;;;23.47;nan;101224.38;6010138;23;20446;-89
2022/09/26 10:48:54;;;;;;;8.63;1.77;;;;;;;23.64;nan;101218.66;6011067;23;20524;-90
2022/09/26 10:51:27;;;;;;;11.03;2.57;;;;;;;23.71;nan;101224.84;6010886;23;21023;-89
2022/09/26 10:54:01;;;;;;;16.13;2.77;;;;;;;23.70;nan;101214.78;6010973;23;20430;-88
2022/09/26 10:56:32;;;;;;;12.53;2.60;;;;;;;23.79;nan;101215.97;6010864;23;20401;-89
2022/09/26 10:59:03;;;;;;;8.77;1.80;;;;;;;23.81;nan;101224.06;6078575;23;20484;-89
2022/09/26 11:01:31;;;;;;;13.53;2.13;;;;;;;23.82;nan;101209.00;6131743;23;20409;-89
2022/09/26 11:07:10;;;;;;;9.00;2.53;;;;;;;24.08;nan;101220.03;6179985;23;20490;-89
2022/09/26 11:09:38;;;;;;;7.97;1.80;;;;;;;24.11;nan;101219.47;6166649;23;20410;-89
2022/09/26 11:12:28;;;;;;;17.03;2.60;;;;;;;24.23;nan;101207.25;6142917;23;20408;-89
2022/09/26 11:15:11;;;;;;;5.27;1.67;;;;;;;24.27;nan;101211.19;6167116;23;20486;-89
2022/09/26 11:17:47;;;;;;;7.90;1.60;;;;;;;24.43;nan;101210.16;6168547;23;20407;-89
2022/09/26 11:20:49;;;;;;;4.70;1.53;;;;;;;24.45;nan;101221.88;6143433;23;20426;-89
2022/09/26 11:23:54;;;;;;;6.43;1.73;;;;;;;24.41;nan;101226.34;6167218;23;20463;-89
2022/09/26 11:26:32;;;;;;;8.57;1.50;;;;;;;24.35;nan;101221.84;6190338;23;20514;-89
2022/09/26 11:29:12;;;;;;;10.70;2.40;;;;;;;24.44;nan;101228.56;6166910;23;20467;-88
2022/09/26 11:31:42;;;;;;;14.60;1.80;;;;;;;24.43;nan;101216.59;6166909;23;20433;-90
2022/09/26 11:34:15;;;;;;;9.83;1.53;;;;;;;24.45;nan;101230.25;6143019;23;20403;-89
2022/09/26 11:45:24;;;;;;;8.30;3.47;;;;;;;24.67;nan;101253.25;6243248;23;20479;-89
2022/09/26 11:48:20;;;;;;;6.40;2.30;;;;;;;24.78;nan;101246.59;6150236;23;20406;-89
2022/09/26 11:51:35;;;;;;;7.00;1.80;;;;;;;24.93;nan;101251.34;6248072;23;20402;-89
2022/09/26 11:54:32;;;;;;;10.73;2.20;;;;;;;24.97;nan;101243.28;6154256;23;20406;-89
2022/09/26 11:57:21;;;;;;;4.63;1.20;;;;;;;24.99;nan;101241.91;6129895;23;20405;-89
2022/09/26 12:00:15;;;;;;;15.67;2.07;;;;;;;25.05;nan;101251.13;6154715;23;20948;-89
2022/09/26 12:03:22;;;;;;;10.23;1.67;;;;;;;25.20;nan;101253.97;6106801;23;20416;-89
2022/09/26 12:06:25;;;;;;;6.53;1.43;;;;;;;25.26;nan;101249.19;6149125;23;20812;-89
2022/09/26 12:08:59;;;;;;;5.17;1.60;;;;;;;25.32;nan;101251.72;6134194;23;20412;-89
2022/09/26 12:11:45;;;;;;;7.33;1.43;;;;;;;25.37;nan;101254.50;6106624;23;20636;-89
2022/09/26 12:14:35;;;;;;;5.80;1.20;;;;;;;25.51;nan;101245.53;6154148;23;20402;-89
2022/09/26 12:17:35;;;;;;;7.13;1.37;;;;;;;25.65;nan;101252.28;6154126;23;20480;-89
2022/09/26 12:20:22;;;;;;;3.03;1.00;;;;;;;25.69;nan;101248.63;6132015;23;20484;-89
2022/09/26 12:23:13;;;;;;;9.07;1.10;;;;;;;25.74;nan;101242.19;6129976;23;20405;-89
2022/09/26 12:25:50;;;;;;;7.10;1.47;;;;;;;25.83;nan;101240.47;6129894;23;20441;-89
2022/09/26 12:28:45;;;;;;;4.43;1.10;;;;;;;25.81;nan;101237.13;6154715;23;20405;-89
2022/09/26 12:31:37;;;;;;;4.57;1.20;;;;;;;25.85;nan;101235.44;6198241;23;20406;-89
2022/09/26 12:34:23;;;;;;;5.43;1.63;;;;;;;25.86;nan;101251.13;6198287;23;20870;-89
2022/09/26 12:37:01;;;;;;;4.03;0.90;;;;;;;25.93;nan;101232.06;6223383;23;20379;-88
2022/09/26 12:39:54;;;;;;;8.77;1.20;;;;;;;25.99;nan;101242.09;6220491;23;20409;-89
2022/09/26 12:42:53;;;;;;;4.83;1.23;;;;;;;26.06;nan;101242.66;6221055;23;20405;-88
2022/09/26 12:45:41;;;;;;;5.80;1.07;;;;;;;26.12;nan;101238.72;6220282;23;20845;-89
2022/09/26 12:48:33;;;;;;;4.13;1.23;;;;;;;26.17;nan;101237.03;6220317;23;20805;-89
2022/09/26 12:51:22;;;;;;;5.20;1.07;;;;;;;26.13;nan;101234.81;6220194;23;20740;-89
2022/09/26 12:54:08;;;;;;;6.33;1.33;;;;;;;26.17;nan;101235.88;6246958;23;20827;-89
2022/09/26 12:56:53;;;;;;;6.07;1.60;;;;;;;26.36;nan;101235.31;6220345;23;20733;-89
2022/09/26 12:59:48;;;;;;;6.70;1.30;;;;;;;26.37;nan;101240.59;6173940;23;20960;-89
2022/09/26 13:02:38;;;;;;;3.43;1.17;;;;;;;26.37;nan;101246.19;6220494;23;20532;-89
2022/09/26 13:05:49;;;;;;;2.47;0.80;;;;;;;26.37;nan;101239.75;6194670;23;20461;-89
2022/09/26 13:08:35;;;;;;;7.80;1.40;;;;;;;26.54;nan;101239.41;6200840;23;20413;-89
2022/09/26 13:11:19;;;;;;;6.93;1.30;;;;;;;26.61;nan;101237.13;6220762;23;20529;-89
2022/09/26 13:14:13;;;;;;;3.30;0.73;;;;;;;26.61;nan;101225.91;6220354;23;20406;-89
2022/09/26 13:16:58;;;;;;;10.63;1.30;;;;;;;26.62;nan;101231.22;6220609;23;20398;-89
2022/09/26 13:19:33;;;;;;;4.50;1.40;;;;;;;26.70;nan;101224.19;6159134;23;20794;-89
2022/09/26 13:22:16;;;;;;;5.73;1.20;;;;;;;26.79;nan;101214.84;6183096;23;20415;-89
2022/09/26 13:24:54;;;;;;;7.27;1.10;;;;;;;26.89;nan;101215.91;6158305;23;20400;-88
2022/09/26 13:27:28;;;;;;;4.87;1.10;;;;;;;26.91;nan;101203.28;6133759;23;20447;-89
2022/09/26 13:30:02;;;;;;;6.03;1.30;;;;;;;26.99;nan;101218.66;6183551;23;20837;-88
2022/09/26 13:33:08;;;;;;;5.03;0.90;;;;;;;26.96;nan;101208.88;6159073;23;20405;-89
2022/09/26 13:35:40;;;;;;;2.80;1.27;;;;;;;26.91;nan;101217.31;6042388;23;20496;-90
2022/09/26 13:38:18;;;;;;;3.00;1.13;;;;;;;26.90;nan;101209.19;6020869;23;20513;-89
2022/09/26 13:41:08;;;;;;;4.37;1.37;;;;;;;26.92;nan;101215.34;6066604;23;20403;-89
2022/09/26 13:43:47;;;;;;;2.50;0.70;;;;;;;27.00;nan;101212.78;6064756;23;20501;-89
2022/09/26 13:46:27;;;;;;;4.80;1.17;;;;;;;27.08;nan;101228.16;6100048;23;20525;-89
2022/09/26 13:49:23;;;;;;;4.73;1.17;;;;;;;27.09;nan;101213.00;6100363;23;20875;-89
2022/09/26 13:51:57;;;;;;;2.37;0.40;;;;;;;27.05;nan;101212.75;6098373;23;20870;-89
2022/09/26 13:54:29;;;;;;;6.77;0.90;;;;;;;26.97;nan;101206.91;6100112;23;20499;-89
2022/09/26 13:56:59;;;;;;;3.43;0.77;;;;;;;26.94;nan;101204.66;6101109;23;20740;-89
2022/09/26 13:59:34;;;;;;;4.37;1.37;;;;;;;26.98;nan;101217.00;6076360;23;20417;-90
2022/09/26 14:02:27;;;;;;;1.60;0.70;;;;;;;27.04;nan;101204.59;6076730;23;20538;-89
2022/09/26 14:05:16;;;;;;;4.27;1.27;;;;;;;27.04;nan;101204.59;6123672;23;20469;-89
2022/09/26 14:10:38;;;;;;;5.30;1.03;;;;;;;26.98;nan;101202.97;6212706;23;20737;-89
2022/09/26 14:13:09;;;;;;;5.77;1.10;;;;;;;26.83;nan;101203.88;6220273;23;20533;-89
2022/09/26 14:15:46;;;;;;;4.67;0.80;;;;;;;26.67;nan;101194.75;6219802;23;20486;-89
2022/09/26 14:18:33;;;;;;;6.60;1.10;;;;;;;26.51;nan;101204.38;6246167;23;20744;-89
2022/09/26 14:21:12;;;;;;;6.20;0.63;;;;;;;26.56;nan;101190.31;6219706;23;20391;-89
2022/09/26 14:23:43;;;;;;;4.07;1.10;;;;;;;26.47;nan;101192.06;6221395;23;20402;-89
2022/09/26 14:26:40;;;;;;;8.90;1.67;;;;;;;26.50;nan;101202.72;6219712;23;20774;-89
2022/09/26 14:29:24;;;;;;;5.77;1.20;;;;;;;26.61;nan;101204.31;6188557;23;20422;-89
2022/09/26 14:32:02;;;;;;;7.03;1.10;;;;;;;26.48;nan;101196.53;6219606;23;20414;-89
2022/09/26 14:34:43;;;;;;;9.20;1.50;;;;;;;26.54;nan;101203.81;6196869;23;20597;-89
2022/09/26 14:37:23;;;;;;;5.47;1.23;;;;;;;26.48;nan;101218.97;6171189;23;20402;-89
2022/09/26 14:40:00;;;;;;;7.40;1.80;;;;;;;26.38;nan;101211.44;6219617;23;20397;-89
2022/09/26 14:42:33;;;;;;;3.73;1.00;;;;;;;26.36;nan;101207.28;6194858;23;20398;-89
2022/09/26 14:45:03;;;;;;;3.93;1.10;;;;;;;26.36;nan;101196.06;6171442;23;20517;-89
2022/09/26 14:47:42;;;;;;;7.70;1.33;;;;;;;26.35;nan;101200.00;6195465;23;20845;-88
2022/09/26 14:50:19;;;;;;;11.37;1.50;;;;;;;26.42;nan;101198.53;6195906;23;20406;-89
2022/09/26 14:52:55;;;;;;;5.73;1.57;;;;;;;26.59;nan;101208.53;6171911;23;20400;-89
2022/09/26 14:55:23;;;;;;;7.50;1.67;;;;;;;26.48;nan;101214.22;6101060;23;20464;-89
2022/09/26 14:57:52;;;;;;;3.57;1.10;;;;;;;26.40;nan;101234.41;6053157;23;20402;-89
2022/09/26 15:00:39;;;;;;;5.63;1.07;;;;;;;26.23;nan;101219.06;6053352;23;20538;-89
2022/09/26 15:03:17;;;;;;;2.00;0.80;;;;;;;26.15;nan;101215.75;6076146;23;20406;-89
2022/09/26 15:05:44;;;;;;;3.20;1.20;;;;;;;26.08;nan;101212.41;6075958;23;20553;-89
2022/09/26 15:08:25;;;;;;;6.63;1.13;;;;;;;25.96;nan;101211.88;6075760;23;20410;-89
2022/09/26 15:10:55;;;;;;;4.50;0.80;;;;;;;25.89;nan;101199.28;6076145;23;20410;-89
2022/09/26 15:13:42;;;;;;;3.73;0.80;;;;;;;25.74;nan;101219.78;6128783;23;20485;-89
2022/09/26 15:16:33;;;;;;;6.00;0.80;;;;;;;25.80;nan;101225.06;6171277;23;20481;-89
2022/09/26 15:19:10;;;;;;;5.23;1.73;;;;;;;25.83;nan;101215.25;6173207;23;20402;-89
2022/09/26 15:21:40;;;;;;;4.70;1.00;;;;;;;25.73;nan;101218.94;6198095;23;20480;-89
2022/09/26 15:24:29;;;;;;;3.57;1.10;;;;;;;25.75;nan;101227.91;6197602;23;20897;-89
2022/09/26 15:26:59;;;;;;;6.73;0.70;;;;;;;25.74;nan;101231.00;6196099;23;20868;-90
2022/09/26 15:29:26;;;;;;;4.40;1.37;;;;;;;25.72;nan;101219.22;6173224;23;20399;-89
2022/09/26 15:31:54;;;;;;;5.23;1.03;;;;;;;25.58;nan;101218.09;6172403;23;20406;-89
2022/09/26 15:34:33;;;;;;;6.23;1.50;;;;;;;25.71;nan;101214.75;6172546;23;20494;-89
2022/09/26 15:37:15;;;;;;;6.00;0.97;;;;;;;25.65;nan;101218.66;6198480;23;20395;-89
2022/09/26 15:39:43;;;;;;;8.13;1.37;;;;;;;25.58;nan;101223.72;6221022;23;20406;-89
2022/09/26 15:45:00;;;;;;;4.97;1.00;;;;;;;25.48;nan;101230.97;6247573;23;20422;-89
2022/09/26 15:47:40;;;;;;;3.93;0.90;;;;;;;25.31;nan;101224.00;6171843;23;20419;-89
2022/09/26 15:50:15;;;;;;;11.50;1.47;;;;;;;25.19;nan;101227.09;6196068;23;20897;-89
2022/09/26 15:52:51;;;;;;;4.03;1.00;;;;;;;25.17;nan;101228.47;6172286;23;20958;-89
2022/09/26 15:55:27;;;;;;;4.97;1.17;;;;;;;25.08;nan;101226.22;6197010;23;20435;-89
2022/09/26 15:57:57;;;;;;;4.53;1.10;;;;;;;24.98;nan;101228.19;6197653;23;20409;-89
2022/09/26 16:00:25;;;;;;;8.40;0.97;;;;;;;24.99;nan;101224.28;6171931;23;20786;-89
2022/09/26 16:02:53;;;;;;;6.57;1.00;;;;;;;24.85;nan;101209.94;6171667;23;20414;-89
2022/09/26 16:05:21;;;;;;;4.40;1.20;;;;;;;24.92;nan;101223.66;6220886;23;20486;-89
2022/09/26 16:07:50;;;;;;;5.20;0.80;;;;;;;24.83;nan;101225.31;6170951;23;20762;-89
2022/09/26 16:10:29;;;;;;;1.90;0.97;;;;;;;24.79;nan;101225.91;6171880;23;20489;-89
2022/09/26 16:12:59;;;;;;;5.67;1.27;;;;;;;24.83;nan;101220.56;6197826;23;20460;-89
2022/09/26 16:15:29;;;;;;;4.80;1.23;;;;;;;24.83;nan;101225.31;6173062;23;20921;-89
2022/09/26 16:17:57;;;;;;;3.93;1.13;;;;;;;24.85;nan;101229.53;6225607;23;20398;-89
2022/09/26 16:20:31;;;;;;;4.20;1.43;;;;;;;24.88;nan;101230.94;6175038;23;20525;-89
2022/09/26 16:23:02;;;;;;;8.40;1.20;;;;;;;24.93;nan;101220.59;6196633;23;20477;-89
2022/09/26 16:25:46;;;;;;;9.40;1.60;;;;;;;24.88;nan;101222.53;6220576;23;20414;-89
2022/09/26 16:28:16;;;;;;;6.50;1.50;;;;;;;24.88;nan;101228.13;6221349;23;20441;-89
2022/09/26 16:30:57;;;;;;;5.93;1.10;;;;;;;24.78;nan;101246.59;6247109;23;20387;-89
2022/09/26 16:33:33;;;;;;;4.63;1.30;;;;;;;24.62;nan;101225.31;6221331;23;20481;-89
2022/09/26 16:36:22;;;;;;;5.83;1.20;;;;;;;24.50;nan;101241.47;6171819;23;20867;-88
2022/09/26 16:39:00;;;;;;;5.00;1.40;;;;;;;24.31;nan;101240.28;6130345;23;20492;-89
2022/09/26 16:41:35;;;;;;;4.50;1.40;;;;;;;24.10;nan;101240.16;6130051;23;20420;-89
2022/09/26 16:44:51;;;;;;;14.43;1.63;;;;;;;24.01;nan;101224.19;6153767;23;20398;-89
2022/09/26 16:47:34;;;;;;;3.73;1.13;;;;;;;23.93;nan;101245.09;6133359;23;20442;-89
2022/09/26 16:50:32;;;;;;;5.13;1.00;;;;;;;23.91;nan;101224.97;6130411;23;20410;-89
2022/09/26 16:53:01;;;;;;;6.50;1.77;;;;;;;23.85;nan;101230.81;6129755;23;20394;-89
2022/09/26 16:55:31;;;;;;;5.33;1.50;;;;;;;23.72;nan;101216.19;6154339;23;20421;-89
2022/09/26 16:58:00;;;;;;;10.37;1.03;;;;;;;23.69;nan;101229.84;6153979;23;20406;-89
2022/09/26 17:03:26;;;;;;;3.10;1.10;;;;;;;23.64;nan;101227.03;6035502;23;20561;-89
2022/09/26 17:05:56;;;;;;;4.00;1.00;;;;;;;23.62;nan;101234.84;6054728;23;20417;-89
2022/09/26 17:08:25;;;;;;;4.30;0.80;;;;;;;23.64;nan;101244.63;6076980;23;20517;-89
2022/09/26 17:10:55;;;;;;;7.00;1.20;;;;;;;23.54;nan;101230.59;6100783;23;20493;-89
2022/09/26 17:13:25;;;;;;;11.03;1.50;;;;;;;23.45;nan;101231.34;6077090;23;20987;-89
2022/09/26 17:16:02;;;;;;;6.20;0.97;;;;;;;23.38;nan;101243.56;6077222;23;20417;-89
2022/09/26 17:18:32;;;;;;;4.63;1.20;;;;;;;23.42;nan;101244.72;6101255;23;20517;-89
2022/09/26 17:21:00;;;;;;;14.40;1.30;;;;;;;23.36;nan;101244.94;6113326;23;20953;-89
2022/09/26 17:23:28;;;;;;;8.07;1.20;;;;;;;23.25;nan;101255.19;6171699;23;20406;-89
2022/09/26 17:26:17;;;;;;;8.30;1.20;;;;;;;23.19;nan;101263.75;6224220;23;20450;-89
2022/09/26 17:28:45;;;;;;;10.53;1.37;;;;;;;23.04;nan;101254.16;6170735;23;20406;-89
2022/09/26 17:31:18;;;;;;;7.80;1.20;;;;;;;22.93;nan;101259.88;6170204;23;20406;-89
2022/09/26 17:33:48;;;;;;;7.17;1.37;;;;;;;22.78;nan;101235.47;6172831;23;20473;-89
2022/09/26 17:36:19;;;;;;;13.13;1.53;;;;;;;22.69;nan;101235.09;6195622;23;20538;-89
2022/09/26 17:38:48;;;;;;;9.10;1.40;;;;;;;22.59;nan;101245.25;6219887;23;20525;-89
2022/09/26 17:41:16;;;;;;;8.37;1.20;;;;;;;22.45;nan;101252.34;6195687;23;20414;-89
2022/09/26 17:43:44;;;;;;;4.07;1.30;;;;;;;22.25;nan;101241.78;6170739;23;20470;-89
2022/09/26 17:46:13;;;;;;;13.23;1.53;;;;;;;22.08;nan;101246.59;6147038;23;20439;-89
2022/09/26 17:48:43;;;;;;;4.87;1.27;;;;;;;21.87;nan;101254.63;6141333;23;20475;-90
2022/09/26 17:51:12;;;;;;;7.63;1.30;;;;;;;21.84;nan;101265.41;6165055;23;20454;-88
2022/09/26 17:53:45;;;;;;;7.37;1.90;;;;;;;21.75;nan;101265.00;6166133;23;20459;-90
2022/09/26 17:56:16;;;;;;;7.17;1.50;;;;;;;21.60;nan;101250.84;6144196;23;20403;-90
2022/09/26 17:58:45;;;;;;;7.20;1.17;;;;;;;21.57;nan;101265.25;6141212;23;20403;-90
2022/09/26 18:12:38;;;;;;;10.53;1.40;;;;;;;21.11;nan;101275.59;6216444;23;20406;-88
2022/09/26 18:15:16;;;;;;;15.20;2.53;;;;;;;21.03;nan;101271.28;6141548;23;20531;-89
2022/09/26 18:18:39;;;;;;;6.33;1.40;;;;;;;21.04;nan;101277.69;6145297;23;20377;-94
2022/09/26 18:24:49;;;;;;;10.13;2.20;;;;;;;20.74;nan;101268.78;6215585;23;20841;-88
2022/09/26 18:27:18;;;;;;;18.47;3.07;;;;;;;20.80;nan;101282.50;6188665;23;20493;-87
2022/09/26 18:29:46;;;;;;;9.87;1.57;;;;;;;20.75;nan;101285.22;6164437;23;20404;-87
2022/09/26 18:32:24;;;;;;;20.20;2.53;;;;;;;20.72;nan;101284.84;6140436;23;20408;-87
2022/09/26 18:34:53;;;;;;;8.13;1.63;;;;;;;20.57;nan;101289.03;6188779;23;20426;-87
2022/09/26 18:37:21;;;;;;;17.27;2.83;;;;;;;20.50;nan;101293.88;6163685;23;20886;-88
2022/09/26 18:39:49;;;;;;;15.90;3.00;;;;;;;20.45;nan;101285.44;6139150;23;20418;-87
2022/09/26 18:42:21;;;;;;;13.17;1.90;;;;;;;20.40;nan;101292.81;6142027;23;20495;-87
2022/09/26 18:45:02;;;;;;;13.57;2.60;;;;;;;20.34;nan;101301.00;6146083;23;20434;-87
2022/09/26 18:47:42;;;;;;;10.27;2.10;;;;;;;20.35;nan;101316.59;6172635;23;20446;-88
2022/09/26 18:50:35;;;;;;;12.80;2.27;;;;;;;20.27;nan;101311.38;6196802;23;20413;-87
2022/09/26 18:53:17;;;;;;;15.07;2.93;;;;;;;20.27;nan;101307.78;6197754;23;20716;-88
2022/09/26 18:58:32;;;;;;;24.13;3.13;;;;;;;20.18;nan;101306.47;6225362;23;20731;-88
2022/09/26 19:01:15;;;;;;;9.57;2.00;;;;;;;20.15;nan;101313.34;6172744;23;20424;-89
2022/09/26 19:03:45;;;;;;;15.03;2.50;;;;;;;20.07;nan;101310.09;6173883;23;20411;-88
2022/09/26 19:06:18;;;;;;;14.27;2.90;;;;;;;20.13;nan;101314.69;6221182;23;20413;-88
2022/09/26 19:08:48;;;;;;;9.53;2.10;;;;;;;20.10;nan;101342.91;6172718;23;20461;-89
2022/09/26 19:11:17;;;;;;;14.60;2.40;;;;;;;20.12;nan;101335.19;6195990;23;20401;-89
2022/09/26 19:13:48;;;;;;;15.93;2.50;;;;;;;20.05;nan;101334.47;6196592;23;20402;-89
2022/09/26 19:16:16;;;;;;;13.83;2.30;;;;;;;19.98;nan;101329.06;6196556;23;20889;-86
2022/09/26 19:18:44;;;;;;;16.50;2.20;;;;;;;19.94;nan;101337.00;6175603;23;20922;-86
2022/09/26 19:21:40;;;;;;;10.73;2.07;;;;;;;19.90;nan;101346.91;6201575;23;20403;-86
2022/09/26 19:24:39;;;;;;;14.60;2.47;;;;;;;19.86;nan;101342.06;6190629;23;20416;-86
2022/09/26 19:27:21;;;;;;;17.30;2.57;;;;;;;19.88;nan;101346.28;6225541;23;20438;-86
2022/09/26 19:30:05;;;;;;;23.70;2.50;;;;;;;19.89;nan;101355.47;6221514;23;20406;-87
2022/09/26 19:32:39;;;;;;;10.70;2.20;;;;;;;19.88;nan;101351.00;6221081;23;20900;-86
2022/09/26 19:35:40;;;;;;;12.27;3.23;;;;;;;19.85;nan;101352.31;6171952;23;20723;-86
2022/09/26 19:38:23;;;;;;;8.87;1.83;;;;;;;19.81;nan;101356.69;6072599;23;20410;-88
2022/09/26 19:40:52;;;;;;;14.57;2.40;;;;;;;19.79;nan;101375.50;6050448;23;20467;-88
2022/09/26 19:43:21;;;;;;;15.83;2.30;;;;;;;19.79;nan;101369.09;6072405;23;20454;-88
2022/09/26 19:45:59;;;;;;;8.70;2.30;;;;;;;19.80;nan;101377.19;6048193;23;20446;-89
2022/09/26 19:48:27;;;;;;;14.57;2.07;;;;;;;19.76;nan;101375.13;6074211;23;20443;-88
2022/09/26 19:50:55;;;;;;;36.93;3.30;;;;;;;19.76;nan;101377.88;6054792;23;20407;-88
2022/09/26 19:53:25;;;;;;;10.23;2.43;;;;;;;19.67;nan;101363.50;6072737;23;20863;-88
2022/09/26 19:55:57;;;;;;;12.47;2.27;;;;;;;19.75;nan;101373.44;6072698;23;20403;-88
2022/09/26 19:58:26;;;;;;;14.10;1.83;;;;;;;19.73;nan;101390.31;6071887;23;20404;-87
2022/09/26 20:00:57;;;;;;;9.40;2.30;;;;;;;19.72;nan;101385.84;6071947;23;20802;-87